Barryville, New York
Current Conditions -  °F | °C
As of 12:55 PM on Tuesday 21 Oct 2014 (Local Time) from KMSV Reporting Station
Overcast Overcast  
Wind Chill: 44°   Ceiling: 1700
Heat Index: 48°   Visibility: 10mi
Dew Point: 48°   Wind: 9mph
Humidity: 100%   Direction: 90°E
Pressure: 29.9"   Gusts: NA
Location:  41.48°N, 74.91°W
Report Text: KMSV 211655Z AUTO 09008KT 10SM SCT003 BKN017 OVC030 09/09 A2990 RMK AO1
Loading
Personal Weather Stations






























Interactive Weather Map
Tropical Storm Tracking
New forecast layout! Learn more

10-Day Weather Forecast

Advertisements
Track Severe Weather on mobile